CheckWX is a tool to help pilots better visualize weather data.  It is not intended as a substitute for an official pre-flight weather briefing.

19:23:49 UTC

FOOG TAF
Port Gentil Airport
Port Gentil, Gabon
TAF FOOG 201700Z 2018/2118 21008KT 9999 SCT010 BKN030

Jun-20@
18:00 UTC

Jun-20 @ 18:00 UTC

Jun-21@
18:00 UTC

Jun-21 @ 18:00 UTC

TAF FOOG 201700Z 2018/2118 21008KT 9999 SCT010 BKN030
Wind
  • 210° at 8 KTS
Cloud Levels
  • Scattered at 1,000' AGL
  • Broken at 3,000' AGL